sensor_id;sensor_type;location;lat;lon;timestamp;temperature;humidity
43043;DHT22;28667;50.758;6.096;2022-09-29T00:01:53;5.70;99.90
43043;DHT22;28667;50.758;6.096;2022-09-29T00:04:19;5.70;99.90
43043;DHT22;28667;50.758;6.096;2022-09-29T00:06:45;5.70;99.90
43043;DHT22;28667;50.758;6.096;2022-09-29T00:09:11;5.60;99.90
43043;DHT22;28667;50.758;6.096;2022-09-29T00:11:37;5.60;99.90
43043;DHT22;28667;50.758;6.096;2022-09-29T00:14:03;5.60;99.90
43043;DHT22;28667;50.758;6.096;2022-09-29T00:16:29;5.50;99.90
43043;DHT22;28667;50.758;6.096;2022-09-29T00:18:55;5.50;99.90
43043;DHT22;28667;50.758;6.096;2022-09-29T00:21:22;5.50;99.90
43043;DHT22;28667;50.758;6.096;2022-09-29T00:23:49;5.40;99.90
43043;DHT22;28667;50.758;6.096;2022-09-29T00:26:21;5.40;99.90
43043;DHT22;28667;50.758;6.096;2022-09-29T00:28:52;5.40;99.90
43043;DHT22;28667;50.758;6.096;2022-09-29T00:31:21;5.40;99.90
43043;DHT22;28667;50.758;6.096;2022-09-29T00:33:47;5.40;99.90
43043;DHT22;28667;50.758;6.096;2022-09-29T00:36:16;5.30;99.90
43043;DHT22;28667;50.758;6.096;2022-09-29T00:38:43;5.30;99.90
43043;DHT22;28667;50.758;6.096;2022-09-29T00:41:15;5.30;99.90
43043;DHT22;28667;50.758;6.096;2022-09-29T00:44:06;5.30;99.90
43043;DHT22;28667;50.758;6.096;2022-09-29T00:46:55;5.20;99.90
43043;DHT22;28667;50.758;6.096;2022-09-29T00:54:24;5.20;99.90
43043;DHT22;28667;50.758;6.096;2022-09-29T00:56:54;5.10;99.90
43043;DHT22;28667;50.758;6.096;2022-09-29T00:59:29;5.20;99.90
43043;DHT22;28667;50.758;6.096;2022-09-29T01:01:57;5.10;99.90
43043;DHT22;28667;50.758;6.096;2022-09-29T01:04:25;5.10;99.90
43043;DHT22;28667;50.758;6.096;2022-09-29T01:06:54;5.10;99.90
43043;DHT22;28667;50.758;6.096;2022-09-29T01:09:26;5.10;99.90
43043;DHT22;28667;50.758;6.096;2022-09-29T01:11:55;5.10;99.90
43043;DHT22;28667;50.758;6.096;2022-09-29T01:14:24;5.10;99.90
43043;DHT22;28667;50.758;6.096;2022-09-29T01:16:51;5.00;99.90
43043;DHT22;28667;50.758;6.096;2022-09-29T01:31:19;5.00;99.90
43043;DHT22;28667;50.758;6.096;2022-09-29T01:42:20;4.90;99.90
43043;DHT22;28667;50.758;6.096;2022-09-29T01:44:58;4.90;99.90
43043;DHT22;28667;50.758;6.096;2022-09-29T01:48:03;4.90;99.90
43043;DHT22;28667;50.758;6.096;2022-09-29T01:50:28;4.90;99.90
43043;DHT22;28667;50.758;6.096;2022-09-29T01:53:03;4.80;99.90
43043;DHT22;28667;50.758;6.096;2022-09-29T01:55:32;4.80;99.90
43043;DHT22;28667;50.758;6.096;2022-09-29T01:58:03;4.80;99.90
43043;DHT22;28667;50.758;6.096;2022-09-29T02:00:37;4.80;99.90
43043;DHT22;28667;50.758;6.096;2022-09-29T02:03:46;4.80;99.90
43043;DHT22;28667;50.758;6.096;2022-09-29T02:06:19;4.70;99.90
43043;DHT22;28667;50.758;6.096;2022-09-29T02:08:50;4.70;99.90
43043;DHT22;28667;50.758;6.096;2022-09-29T02:11:16;4.70;99.90
43043;DHT22;28667;50.758;6.096;2022-09-29T02:13:52;4.60;99.90
43043;DHT22;28667;50.758;6.096;2022-09-29T02:16:28;4.60;99.90
43043;DHT22;28667;50.758;6.096;2022-09-29T02:19:00;4.60;99.90
43043;DHT22;28667;50.758;6.096;2022-09-29T02:21:27;4.50;99.90
43043;DHT22;28667;50.758;6.096;2022-09-29T02:23:54;4.50;99.90
43043;DHT22;28667;50.758;6.096;2022-09-29T02:26:22;4.50;99.90
43043;DHT22;28667;50.758;6.096;2022-09-29T02:28:49;4.50;99.90
43043;DHT22;28667;50.758;6.096;2022-09-29T02:31:18;4.50;99.90
43043;DHT22;28667;50.758;6.096;2022-09-29T02:33:44;4.50;99.90
43043;DHT22;28667;50.758;6.096;2022-09-29T02:39:20;4.50;99.90
43043;DHT22;28667;50.758;6.096;2022-09-29T02:42:31;4.50;99.90
43043;DHT22;28667;50.758;6.096;2022-09-29T02:56:37;4.40;99.90
43043;DHT22;28667;50.758;6.096;2022-09-29T02:59:19;4.40;99.90
43043;DHT22;28667;50.758;6.096;2022-09-29T03:01:54;4.40;99.90
43043;DHT22;28667;50.758;6.096;2022-09-29T03:04:23;4.30;99.90
43043;DHT22;28667;50.758;6.096;2022-09-29T03:06:50;4.30;99.90
43043;DHT22;28667;50.758;6.096;2022-09-29T03:09:17;4.30;99.90
43043;DHT22;28667;50.758;6.096;2022-09-29T03:11:43;4.30;99.90
43043;DHT22;28667;50.758;6.096;2022-09-29T03:14:09;4.30;99.90
43043;DHT22;28667;50.758;6.096;2022-09-29T03:16:35;4.20;99.90
43043;DHT22;28667;50.758;6.096;2022-09-29T03:19:05;4.20;99.90
43043;DHT22;28667;50.758;6.096;2022-09-29T03:21:32;4.20;99.90
43043;DHT22;28667;50.758;6.096;2022-09-29T03:23:59;4.20;99.90
43043;DHT22;28667;50.758;6.096;2022-09-29T03:26:25;4.20;99.90
43043;DHT22;28667;50.758;6.096;2022-09-29T03:28:52;4.20;99.90
43043;DHT22;28667;50.758;6.096;2022-09-29T03:31:18;4.20;99.90
43043;DHT22;28667;50.758;6.096;2022-09-29T03:33:45;4.10;99.90
43043;DHT22;28667;50.758;6.096;2022-09-29T03:36:11;4.10;99.90
43043;DHT22;28667;50.758;6.096;2022-09-29T03:38:38;4.10;99.90
43043;DHT22;28667;50.758;6.096;2022-09-29T03:41:05;4.10;99.90
43043;DHT22;28667;50.758;6.096;2022-09-29T03:43:31;4.10;99.90
43043;DHT22;28667;50.758;6.096;2022-09-29T03:45:57;4.10;99.90
43043;DHT22;28667;50.758;6.096;2022-09-29T03:48:23;4.10;99.90
43043;DHT22;28667;50.758;6.096;2022-09-29T03:50:50;4.10;99.90
43043;DHT22;28667;50.758;6.096;2022-09-29T03:53:17;4.10;99.90
43043;DHT22;28667;50.758;6.096;2022-09-29T03:55:49;4.10;99.90
43043;DHT22;28667;50.758;6.096;2022-09-29T03:58:16;4.10;99.90
43043;DHT22;28667;50.758;6.096;2022-09-29T04:00:43;4.00;99.90
43043;DHT22;28667;50.758;6.096;2022-09-29T04:03:09;4.00;99.90
43043;DHT22;28667;50.758;6.096;2022-09-29T04:05:35;4.00;99.90
43043;DHT22;28667;50.758;6.096;2022-09-29T04:08:05;4.00;99.90
43043;DHT22;28667;50.758;6.096;2022-09-29T04:10:35;3.90;99.90
43043;DHT22;28667;50.758;6.096;2022-09-29T04:13:01;3.90;99.90
43043;DHT22;28667;50.758;6.096;2022-09-29T04:15:27;3.90;99.90
43043;DHT22;28667;50.758;6.096;2022-09-29T04:17:54;3.90;99.90
43043;DHT22;28667;50.758;6.096;2022-09-29T04:20:20;3.90;99.90
43043;DHT22;28667;50.758;6.096;2022-09-29T04:22:46;3.80;99.90
43043;DHT22;28667;50.758;6.096;2022-09-29T04:25:12;3.80;99.90
43043;DHT22;28667;50.758;6.096;2022-09-29T04:27:38;3.80;99.90
43043;DHT22;28667;50.758;6.096;2022-09-29T04:30:05;3.80;99.90
43043;DHT22;28667;50.758;6.096;2022-09-29T04:32:31;3.80;99.90
43043;DHT22;28667;50.758;6.096;2022-09-29T04:34:57;3.80;99.90
43043;DHT22;28667;50.758;6.096;2022-09-29T04:37:23;3.70;99.90
43043;DHT22;28667;50.758;6.096;2022-09-29T04:39:49;3.70;99.90
43043;DHT22;28667;50.758;6.096;2022-09-29T04:42:18;3.70;99.90
43043;DHT22;28667;50.758;6.096;2022-09-29T04:44:44;3.70;99.90
43043;DHT22;28667;50.758;6.096;2022-09-29T04:47:10;3.70;99.90
43043;DHT22;28667;50.758;6.096;2022-09-29T04:49:36;3.70;99.90
43043;DHT22;28667;50.758;6.096;2022-09-29T04:52:03;3.70;99.90
43043;DHT22;28667;50.758;6.096;2022-09-29T04:54:30;3.70;99.90
43043;DHT22;28667;50.758;6.096;2022-09-29T04:56:57;3.70;99.90
43043;DHT22;28667;50.758;6.096;2022-09-29T04:59:23;3.60;99.90
43043;DHT22;28667;50.758;6.096;2022-09-29T05:01:49;3.60;99.90
43043;DHT22;28667;50.758;6.096;2022-09-29T05:04:15;3.60;99.90
43043;DHT22;28667;50.758;6.096;2022-09-29T05:06:41;3.60;99.90
43043;DHT22;28667;50.758;6.096;2022-09-29T05:09:08;3.60;99.90
43043;DHT22;28667;50.758;6.096;2022-09-29T05:11:34;3.60;99.90
43043;DHT22;28667;50.758;6.096;2022-09-29T05:14:01;3.50;99.90
43043;DHT22;28667;50.758;6.096;2022-09-29T05:16:27;3.60;99.90
43043;DHT22;28667;50.758;6.096;2022-09-29T05:18:54;3.50;99.90
43043;DHT22;28667;50.758;6.096;2022-09-29T05:21:20;3.50;99.90
43043;DHT22;28667;50.758;6.096;2022-09-29T05:23:46;3.50;99.90
43043;DHT22;28667;50.758;6.096;2022-09-29T05:26:13;3.50;99.90
43043;DHT22;28667;50.758;6.096;2022-09-29T05:28:44;3.50;99.90
43043;DHT22;28667;50.758;6.096;2022-09-29T05:31:11;3.50;99.90
43043;DHT22;28667;50.758;6.096;2022-09-29T05:33:37;3.50;99.90
43043;DHT22;28667;50.758;6.096;2022-09-29T05:36:08;3.50;99.90
43043;DHT22;28667;50.758;6.096;2022-09-29T05:38:35;3.50;99.90
43043;DHT22;28667;50.758;6.096;2022-09-29T05:41:10;3.50;99.90
43043;DHT22;28667;50.758;6.096;2022-09-29T05:43:37;3.50;99.90
43043;DHT22;28667;50.758;6.096;2022-09-29T05:46:06;3.50;99.90
43043;DHT22;28667;50.758;6.096;2022-09-29T05:48:32;3.50;99.90
43043;DHT22;28667;50.758;6.096;2022-09-29T05:51:05;3.50;99.90
43043;DHT22;28667;50.758;6.096;2022-09-29T05:53:31;3.50;99.90
43043;DHT22;28667;50.758;6.096;2022-09-29T05:55:57;3.60;99.90
43043;DHT22;28667;50.758;6.096;2022-09-29T05:58:23;3.60;99.90
43043;DHT22;28667;50.758;6.096;2022-09-29T06:00:49;3.60;99.90
43043;DHT22;28667;50.758;6.096;2022-09-29T06:03:15;3.60;99.90
43043;DHT22;28667;50.758;6.096;2022-09-29T06:05:41;3.70;99.90
43043;DHT22;28667;50.758;6.096;2022-09-29T06:08:08;3.70;99.90
43043;DHT22;28667;50.758;6.096;2022-09-29T06:10:34;3.70;99.90
43043;DHT22;28667;50.758;6.096;2022-09-29T06:13:01;3.80;99.90
43043;DHT22;28667;50.758;6.096;2022-09-29T06:15:28;3.80;99.90
43043;DHT22;28667;50.758;6.096;2022-09-29T06:17:57;3.80;99.90
43043;DHT22;28667;50.758;6.096;2022-09-29T06:20:24;3.90;99.90
43043;DHT22;28667;50.758;6.096;2022-09-29T06:22:54;3.90;99.90
43043;DHT22;28667;50.758;6.096;2022-09-29T06:25:21;3.90;99.90
43043;DHT22;28667;50.758;6.096;2022-09-29T06:27:47;4.00;99.90
43043;DHT22;28667;50.758;6.096;2022-09-29T06:30:14;4.00;99.90
43043;DHT22;28667;50.758;6.096;2022-09-29T06:32:40;4.10;99.90
43043;DHT22;28667;50.758;6.096;2022-09-29T06:35:06;4.10;99.90
43043;DHT22;28667;50.758;6.096;2022-09-29T06:37:53;4.10;99.90
43043;DHT22;28667;50.758;6.096;2022-09-29T06:40:20;4.20;99.90
43043;DHT22;28667;50.758;6.096;2022-09-29T06:42:46;4.30;99.90
43043;DHT22;28667;50.758;6.096;2022-09-29T06:45:13;4.30;99.90
43043;DHT22;28667;50.758;6.096;2022-09-29T06:47:39;4.30;99.90
43043;DHT22;28667;50.758;6.096;2022-09-29T06:50:06;4.40;99.90
43043;DHT22;28667;50.758;6.096;2022-09-29T06:52:32;4.40;99.90
43043;DHT22;28667;50.758;6.096;2022-09-29T06:54:58;4.50;99.90
43043;DHT22;28667;50.758;6.096;2022-09-29T06:57:24;4.50;99.90
43043;DHT22;28667;50.758;6.096;2022-09-29T06:59:51;4.50;99.90
43043;DHT22;28667;50.758;6.096;2022-09-29T07:02:17;4.60;99.90
43043;DHT22;28667;50.758;6.096;2022-09-29T07:04:43;4.60;99.90
43043;DHT22;28667;50.758;6.096;2022-09-29T07:07:09;4.70;99.90
43043;DHT22;28667;50.758;6.096;2022-09-29T07:09:36;4.70;99.90
43043;DHT22;28667;50.758;6.096;2022-09-29T07:12:02;4.70;99.90
43043;DHT22;28667;50.758;6.096;2022-09-29T07:14:28;4.80;99.90
43043;DHT22;28667;50.758;6.096;2022-09-29T07:16:54;4.90;99.90
43043;DHT22;28667;50.758;6.096;2022-09-29T07:19:20;5.00;99.90
43043;DHT22;28667;50.758;6.096;2022-09-29T07:21:47;5.00;99.90
43043;DHT22;28667;50.758;6.096;2022-09-29T07:24:14;5.10;99.90
43043;DHT22;28667;50.758;6.096;2022-09-29T07:26:40;5.10;99.90
43043;DHT22;28667;50.758;6.096;2022-09-29T07:29:06;5.10;99.90
43043;DHT22;28667;50.758;6.096;2022-09-29T07:31:32;5.20;99.90
43043;DHT22;28667;50.758;6.096;2022-09-29T07:33:58;5.30;99.90
43043;DHT22;28667;50.758;6.096;2022-09-29T07:36:24;5.40;99.90
43043;DHT22;28667;50.758;6.096;2022-09-29T07:38:51;5.40;99.90
43043;DHT22;28667;50.758;6.096;2022-09-29T07:41:20;5.50;99.90
43043;DHT22;28667;50.758;6.096;2022-09-29T07:43:46;5.60;99.90
43043;DHT22;28667;50.758;6.096;2022-09-29T07:46:12;5.60;99.90
43043;DHT22;28667;50.758;6.096;2022-09-29T07:48:38;5.70;99.90
43043;DHT22;28667;50.758;6.096;2022-09-29T07:51:07;5.80;99.90
43043;DHT22;28667;50.758;6.096;2022-09-29T07:53:35;5.90;99.90
43043;DHT22;28667;50.758;6.096;2022-09-29T07:56:08;6.10;99.90
43043;DHT22;28667;50.758;6.096;2022-09-29T07:58:35;6.20;99.90
43043;DHT22;28667;50.758;6.096;2022-09-29T08:01:04;6.40;99.90
43043;DHT22;28667;50.758;6.096;2022-09-29T08:03:32;6.50;99.90
43043;DHT22;28667;50.758;6.096;2022-09-29T08:05:58;6.60;99.90
43043;DHT22;28667;50.758;6.096;2022-09-29T08:08:25;6.80;99.90
43043;DHT22;28667;50.758;6.096;2022-09-29T08:10:51;6.90;99.90
43043;DHT22;28667;50.758;6.096;2022-09-29T08:13:17;7.00;99.90
43043;DHT22;28667;50.758;6.096;2022-09-29T08:15:43;7.00;99.90
43043;DHT22;28667;50.758;6.096;2022-09-29T08:18:10;7.10;99.90
43043;DHT22;28667;50.758;6.096;2022-09-29T08:20:36;7.20;99.90
43043;DHT22;28667;50.758;6.096;2022-09-29T08:23:02;7.20;99.90
43043;DHT22;28667;50.758;6.096;2022-09-29T08:25:28;7.30;99.90
43043;DHT22;28667;50.758;6.096;2022-09-29T08:27:54;7.30;99.90
43043;DHT22;28667;50.758;6.096;2022-09-29T08:30:20;7.40;99.90
43043;DHT22;28667;50.758;6.096;2022-09-29T08:32:51;7.50;99.90
43043;DHT22;28667;50.758;6.096;2022-09-29T08:35:17;7.50;99.90
43043;DHT22;28667;50.758;6.096;2022-09-29T08:37:43;7.60;99.90
43043;DHT22;28667;50.758;6.096;2022-09-29T08:40:09;7.60;99.90
43043;DHT22;28667;50.758;6.096;2022-09-29T08:45:32;7.70;99.90
43043;DHT22;28667;50.758;6.096;2022-09-29T08:48:14;7.70;99.90
43043;DHT22;28667;50.758;6.096;2022-09-29T08:50:58;7.70;99.90
43043;DHT22;28667;50.758;6.096;2022-09-29T08:53:27;7.80;99.90
43043;DHT22;28667;50.758;6.096;2022-09-29T08:56:02;7.90;99.90
43043;DHT22;28667;50.758;6.096;2022-09-29T08:58:29;8.00;99.90
43043;DHT22;28667;50.758;6.096;2022-09-29T09:03:35;8.10;99.90
43043;DHT22;28667;50.758;6.096;2022-09-29T09:06:10;8.20;99.90
43043;DHT22;28667;50.758;6.096;2022-09-29T09:17:26;8.40;99.90
43043;DHT22;28667;50.758;6.096;2022-09-29T09:23:21;8.40;99.90
43043;DHT22;28667;50.758;6.096;2022-09-29T09:25:59;8.50;99.90
43043;DHT22;28667;50.758;6.096;2022-09-29T09:28:57;8.60;99.90
43043;DHT22;28667;50.758;6.096;2022-09-29T09:31:37;8.70;99.90
43043;DHT22;28667;50.758;6.096;2022-09-29T09:36:44;9.10;99.90
43043;DHT22;28667;50.758;6.096;2022-09-29T09:39:19;9.10;99.90
43043;DHT22;28667;50.758;6.096;2022-09-29T09:41:48;9.10;99.90
43043;DHT22;28667;50.758;6.096;2022-09-29T09:44:19;9.20;99.90
43043;DHT22;28667;50.758;6.096;2022-09-29T09:46:56;9.40;99.90
43043;DHT22;28667;50.758;6.096;2022-09-29T09:49:44;9.50;99.90
43043;DHT22;28667;50.758;6.096;2022-09-29T09:54:59;9.80;99.90
43043;DHT22;28667;50.758;6.096;2022-09-29T09:57:49;10.00;99.90
43043;DHT22;28667;50.758;6.096;2022-09-29T10:00:34;10.20;99.90
43043;DHT22;28667;50.758;6.096;2022-09-29T10:03:04;10.40;99.90
43043;DHT22;28667;50.758;6.096;2022-09-29T10:08:03;10.60;99.90
43043;DHT22;28667;50.758;6.096;2022-09-29T10:10:30;10.80;99.90
43043;DHT22;28667;50.758;6.096;2022-09-29T10:13:09;10.90;99.90
43043;DHT22;28667;50.758;6.096;2022-09-29T10:15:53;11.10;99.90
43043;DHT22;28667;50.758;6.096;2022-09-29T10:18:39;11.20;99.90
43043;DHT22;28667;50.758;6.096;2022-09-29T10:23:54;11.40;99.90
43043;DHT22;28667;50.758;6.096;2022-09-29T10:26:24;11.50;99.90
43043;DHT22;28667;50.758;6.096;2022-09-29T10:28:56;11.70;99.90
43043;DHT22;28667;50.758;6.096;2022-09-29T10:31:29;11.80;99.90
43043;DHT22;28667;50.758;6.096;2022-09-29T10:34:02;12.00;99.90
43043;DHT22;28667;50.758;6.096;2022-09-29T10:39:37;12.20;99.90
43043;DHT22;28667;50.758;6.096;2022-09-29T10:42:36;12.30;99.90
43043;DHT22;28667;50.758;6.096;2022-09-29T10:45:19;12.50;99.90
43043;DHT22;28667;50.758;6.096;2022-09-29T10:50:59;13.00;99.90
43043;DHT22;28667;50.758;6.096;2022-09-29T10:56:06;13.40;99.90
43043;DHT22;28667;50.758;6.096;2022-09-29T10:58:54;13.40;99.90
43043;DHT22;28667;50.758;6.096;2022-09-29T11:01:23;13.60;99.90
43043;DHT22;28667;50.758;6.096;2022-09-29T11:04:02;13.70;99.90
43043;DHT22;28667;50.758;6.096;2022-09-29T11:06:35;13.80;99.90
43043;DHT22;28667;50.758;6.096;2022-09-29T11:09:06;13.90;99.70
43043;DHT22;28667;50.758;6.096;2022-09-29T11:11:37;14.00;99.20
43043;DHT22;28667;50.758;6.096;2022-09-29T11:14:04;14.00;98.30
43043;DHT22;28667;50.758;6.096;2022-09-29T11:16:33;14.00;98.60
43043;DHT22;28667;50.758;6.096;2022-09-29T11:19:09;14.00;97.80
43043;DHT22;28667;50.758;6.096;2022-09-29T11:30:11;13.60;98.20
43043;DHT22;28667;50.758;6.096;2022-09-29T11:33:06;13.60;98.00
43043;DHT22;28667;50.758;6.096;2022-09-29T12:00:40;12.80;99.40
43043;DHT22;28667;50.758;6.096;2022-09-29T12:08:49;12.60;99.90
43043;DHT22;28667;50.758;6.096;2022-09-29T12:11:43;12.50;99.80
43043;DHT22;28667;50.758;6.096;2022-09-29T12:14:15;12.50;99.60
43043;DHT22;28667;50.758;6.096;2022-09-29T12:16:56;12.50;99.90
43043;DHT22;28667;50.758;6.096;2022-09-29T12:19:30;12.50;99.80
43043;DHT22;28667;50.758;6.096;2022-09-29T12:21:59;12.50;99.20
43043;DHT22;28667;50.758;6.096;2022-09-29T12:24:34;12.60;99.30
43043;DHT22;28667;50.758;6.096;2022-09-29T12:27:25;12.60;98.40
43043;DHT22;28667;50.758;6.096;2022-09-29T12:29:56;12.60;98.40
43043;DHT22;28667;50.758;6.096;2022-09-29T12:32:37;12.60;99.10
43043;DHT22;28667;50.758;6.096;2022-09-29T12:35:27;12.60;99.70
43043;DHT22;28667;50.758;6.096;2022-09-29T12:43:29;12.50;99.90
43043;DHT22;28667;50.758;6.096;2022-09-29T12:46:19;12.40;99.90
43043;DHT22;28667;50.758;6.096;2022-09-29T12:49:21;12.40;99.90
43043;DHT22;28667;50.758;6.096;2022-09-29T12:51:49;12.40;99.90
43043;DHT22;28667;50.758;6.096;2022-09-29T12:57:19;12.30;99.90
43043;DHT22;28667;50.758;6.096;2022-09-29T13:00:01;12.20;99.90
43043;DHT22;28667;50.758;6.096;2022-09-29T13:05:46;12.20;99.90
43043;DHT22;28667;50.758;6.096;2022-09-29T13:08:33;12.20;99.90
43043;DHT22;28667;50.758;6.096;2022-09-29T13:11:20;12.40;99.90
43043;DHT22;28667;50.758;6.096;2022-09-29T13:14:06;12.50;99.90
43043;DHT22;28667;50.758;6.096;2022-09-29T13:16:47;12.60;99.90
43043;DHT22;28667;50.758;6.096;2022-09-29T13:27:36;13.10;99.90
43043;DHT22;28667;50.758;6.096;2022-09-29T13:32:48;13.30;99.10
43043;DHT22;28667;50.758;6.096;2022-09-29T13:35:19;13.30;98.70
43043;DHT22;28667;50.758;6.096;2022-09-29T13:38:03;13.30;98.70
43043;DHT22;28667;50.758;6.096;2022-09-29T13:40:31;13.30;98.80
43043;DHT22;28667;50.758;6.096;2022-09-29T13:42:59;13.20;98.50
43043;DHT22;28667;50.758;6.096;2022-09-29T13:50:52;13.10;99.50
43043;DHT22;28667;50.758;6.096;2022-09-29T13:58:31;12.90;99.10
43043;DHT22;28667;50.758;6.096;2022-09-29T14:01:01;12.90;98.80
43043;DHT22;28667;50.758;6.096;2022-09-29T14:03:36;12.90;99.10
43043;DHT22;28667;50.758;6.096;2022-09-29T14:06:04;12.90;99.50
43043;DHT22;28667;50.758;6.096;2022-09-29T14:09:02;12.90;99.50
43043;DHT22;28667;50.758;6.096;2022-09-29T14:11:56;12.90;99.50
43043;DHT22;28667;50.758;6.096;2022-09-29T14:14:28;13.00;99.60
43043;DHT22;28667;50.758;6.096;2022-09-29T14:27:42;13.10;99.90
43043;DHT22;28667;50.758;6.096;2022-09-29T14:33:09;13.20;99.90
43043;DHT22;28667;50.758;6.096;2022-09-29T14:35:38;13.10;99.90
43043;DHT22;28667;50.758;6.096;2022-09-29T14:38:09;13.10;99.90
43043;DHT22;28667;50.758;6.096;2022-09-29T14:40:40;13.10;99.90
43043;DHT22;28667;50.758;6.096;2022-09-29T14:43:18;13.10;99.90
43043;DHT22;28667;50.758;6.096;2022-09-29T15:03:27;13.10;99.90
43043;DHT22;28667;50.758;6.096;2022-09-29T15:08:30;13.20;99.90
43043;DHT22;28667;50.758;6.096;2022-09-29T15:10:56;13.20;99.90
43043;DHT22;28667;50.758;6.096;2022-09-29T15:13:28;13.10;99.90
43043;DHT22;28667;50.758;6.096;2022-09-29T15:16:25;13.10;99.90
43043;DHT22;28667;50.758;6.096;2022-09-29T15:21:20;13.00;99.90
43043;DHT22;28667;50.758;6.096;2022-09-29T15:24:19;12.90;99.90
43043;DHT22;28667;50.758;6.096;2022-09-29T15:26:47;12.90;99.90
43043;DHT22;28667;50.758;6.096;2022-09-29T15:29:15;12.80;99.90
43043;DHT22;28667;50.758;6.096;2022-09-29T15:31:44;12.80;99.90
43043;DHT22;28667;50.758;6.096;2022-09-29T15:34:16;12.70;99.90
43043;DHT22;28667;50.758;6.096;2022-09-29T15:36:46;12.70;99.90
43043;DHT22;28667;50.758;6.096;2022-09-29T15:39:41;12.60;99.90
43043;DHT22;28667;50.758;6.096;2022-09-29T15:42:21;12.60;99.90
43043;DHT22;28667;50.758;6.096;2022-09-29T15:45:00;12.50;99.90
43043;DHT22;28667;50.758;6.096;2022-09-29T15:47:39;12.50;99.90
43043;DHT22;28667;50.758;6.096;2022-09-29T15:50:21;12.40;99.90
43043;DHT22;28667;50.758;6.096;2022-09-29T15:52:48;12.40;99.90
43043;DHT22;28667;50.758;6.096;2022-09-29T15:55:17;12.30;99.90
43043;DHT22;28667;50.758;6.096;2022-09-29T15:57:51;12.20;99.90
43043;DHT22;28667;50.758;6.096;2022-09-29T16:05:37;12.00;99.90
43043;DHT22;28667;50.758;6.096;2022-09-29T16:08:11;11.90;99.90
43043;DHT22;28667;50.758;6.096;2022-09-29T16:11:00;11.80;99.90
43043;DHT22;28667;50.758;6.096;2022-09-29T16:13:33;11.70;99.90
43043;DHT22;28667;50.758;6.096;2022-09-29T16:16:02;11.70;99.90
43043;DHT22;28667;50.758;6.096;2022-09-29T16:18:36;11.70;99.90
43043;DHT22;28667;50.758;6.096;2022-09-29T16:21:09;11.80;99.90
43043;DHT22;28667;50.758;6.096;2022-09-29T16:24:02;11.70;99.90
43043;DHT22;28667;50.758;6.096;2022-09-29T16:26:34;11.70;99.90
43043;DHT22;28667;50.758;6.096;2022-09-29T16:31:39;11.60;99.90
43043;DHT22;28667;50.758;6.096;2022-09-29T16:34:30;11.70;99.90
43043;DHT22;28667;50.758;6.096;2022-09-29T16:37:04;11.70;99.90
43043;DHT22;28667;50.758;6.096;2022-09-29T16:39:45;11.70;99.90
43043;DHT22;28667;50.758;6.096;2022-09-29T16:42:24;11.70;99.90
43043;DHT22;28667;50.758;6.096;2022-09-29T16:44:52;11.70;99.90
43043;DHT22;28667;50.758;6.096;2022-09-29T16:49:57;11.60;99.90
43043;DHT22;28667;50.758;6.096;2022-09-29T16:52:42;11.50;99.90
43043;DHT22;28667;50.758;6.096;2022-09-29T16:55:25;11.50;99.90
43043;DHT22;28667;50.758;6.096;2022-09-29T16:58:03;11.40;99.90
43043;DHT22;28667;50.758;6.096;2022-09-29T17:00:30;11.20;99.90
43043;DHT22;28667;50.758;6.096;2022-09-29T17:02:56;11.10;99.90
43043;DHT22;28667;50.758;6.096;2022-09-29T17:05:24;11.00;99.90
43043;DHT22;28667;50.758;6.096;2022-09-29T17:08:00;10.90;99.90
43043;DHT22;28667;50.758;6.096;2022-09-29T17:10:26;10.80;99.90
43043;DHT22;28667;50.758;6.096;2022-09-29T17:12:52;10.60;99.90
43043;DHT22;28667;50.758;6.096;2022-09-29T17:15:21;10.50;99.90
43043;DHT22;28667;50.758;6.096;2022-09-29T17:17:49;10.40;99.90
43043;DHT22;28667;50.758;6.096;2022-09-29T17:20:18;10.30;99.90
43043;DHT22;28667;50.758;6.096;2022-09-29T17:22:45;10.20;99.90
43043;DHT22;28667;50.758;6.096;2022-09-29T17:25:12;10.00;99.90
43043;DHT22;28667;50.758;6.096;2022-09-29T17:27:39;9.90;99.90
43043;DHT22;28667;50.758;6.096;2022-09-29T17:30:24;9.80;99.90
43043;DHT22;28667;50.758;6.096;2022-09-29T17:32:55;9.60;99.90
43043;DHT22;28667;50.758;6.096;2022-09-29T17:35:28;9.60;99.90
43043;DHT22;28667;50.758;6.096;2022-09-29T17:37:55;9.50;99.90
43043;DHT22;28667;50.758;6.096;2022-09-29T17:40:24;9.40;99.90
43043;DHT22;28667;50.758;6.096;2022-09-29T17:42:52;9.30;99.90
43043;DHT22;28667;50.758;6.096;2022-09-29T17:45:19;9.30;99.90
43043;DHT22;28667;50.758;6.096;2022-09-29T17:47:47;9.10;99.90
43043;DHT22;28667;50.758;6.096;2022-09-29T17:50:35;9.10;99.90
43043;DHT22;28667;50.758;6.096;2022-09-29T17:53:03;9.00;99.90
43043;DHT22;28667;50.758;6.096;2022-09-29T17:55:30;8.90;99.90
43043;DHT22;28667;50.758;6.096;2022-09-29T17:57:56;8.80;99.90
43043;DHT22;28667;50.758;6.096;2022-09-29T18:00:29;8.80;99.90
43043;DHT22;28667;50.758;6.096;2022-09-29T18:02:56;8.70;99.90
43043;DHT22;28667;50.758;6.096;2022-09-29T18:05:25;8.60;99.90
43043;DHT22;28667;50.758;6.096;2022-09-29T18:07:56;8.50;99.90
43043;DHT22;28667;50.758;6.096;2022-09-29T18:10:28;8.50;99.90
43043;DHT22;28667;50.758;6.096;2022-09-29T18:12:55;8.40;99.90
43043;DHT22;28667;50.758;6.096;2022-09-29T18:15:23;8.30;99.90
43043;DHT22;28667;50.758;6.096;2022-09-29T18:17:54;8.20;99.90
43043;DHT22;28667;50.758;6.096;2022-09-29T18:20:21;8.20;99.90
43043;DHT22;28667;50.758;6.096;2022-09-29T18:22:48;8.10;99.90
43043;DHT22;28667;50.758;6.096;2022-09-29T18:25:16;8.10;99.90
43043;DHT22;28667;50.758;6.096;2022-09-29T18:27:44;8.00;99.90
43043;DHT22;28667;50.758;6.096;2022-09-29T18:32:47;7.90;99.90
43043;DHT22;28667;50.758;6.096;2022-09-29T18:35:16;7.90;99.90
43043;DHT22;28667;50.758;6.096;2022-09-29T18:37:42;7.80;99.90
43043;DHT22;28667;50.758;6.096;2022-09-29T18:40:09;7.80;99.90
43043;DHT22;28667;50.758;6.096;2022-09-29T18:42:54;7.70;99.90
43043;DHT22;28667;50.758;6.096;2022-09-29T18:45:27;7.70;99.90
43043;DHT22;28667;50.758;6.096;2022-09-29T18:47:59;7.60;99.90
43043;DHT22;28667;50.758;6.096;2022-09-29T18:52:56;7.50;99.90
43043;DHT22;28667;50.758;6.096;2022-09-29T18:55:26;7.50;99.90
43043;DHT22;28667;50.758;6.096;2022-09-29T18:57:55;7.40;99.90
43043;DHT22;28667;50.758;6.096;2022-09-29T19:00:27;7.40;99.90
43043;DHT22;28667;50.758;6.096;2022-09-29T19:02:53;7.40;99.90
43043;DHT22;28667;50.758;6.096;2022-09-29T19:05:23;7.30;99.90
43043;DHT22;28667;50.758;6.096;2022-09-29T19:07:59;7.30;99.90
43043;DHT22;28667;50.758;6.096;2022-09-29T19:10:26;7.30;99.90
43043;DHT22;28667;50.758;6.096;2022-09-29T19:12:56;7.20;99.90
43043;DHT22;28667;50.758;6.096;2022-09-29T19:15:24;7.20;99.90
43043;DHT22;28667;50.758;6.096;2022-09-29T19:17:52;7.20;99.90
43043;DHT22;28667;50.758;6.096;2022-09-29T19:20:24;7.10;99.90
43043;DHT22;28667;50.758;6.096;2022-09-29T19:22:52;7.10;99.90
43043;DHT22;28667;50.758;6.096;2022-09-29T19:25:21;7.10;99.90
43043;DHT22;28667;50.758;6.096;2022-09-29T19:27:48;7.00;99.90
43043;DHT22;28667;50.758;6.096;2022-09-29T19:30:16;7.00;99.90